sensor_id;sensor_type;location;lat;lon;timestamp;temperature;humidity
7248;DHT22;3665;51.034;13.642;2023-05-02T00:00:17;11.00;1.00
7248;DHT22;3665;51.034;13.642;2023-05-02T00:05:21;11.10;1.00
7248;DHT22;3665;51.034;13.642;2023-05-02T00:10:09;11.20;1.00
7248;DHT22;3665;51.034;13.642;2023-05-02T00:14:58;11.20;1.00
7248;DHT22;3665;51.034;13.642;2023-05-02T00:19:43;11.20;1.00
7248;DHT22;3665;51.034;13.642;2023-05-02T00:24:30;11.30;1.00
7248;DHT22;3665;51.034;13.642;2023-05-02T00:29:24;11.30;1.00
7248;DHT22;3665;51.034;13.642;2023-05-02T00:34:08;11.30;1.00
7248;DHT22;3665;51.034;13.642;2023-05-02T00:38:58;11.30;1.00
7248;DHT22;3665;51.034;13.642;2023-05-02T00:43:42;11.20;1.00
7248;DHT22;3665;51.034;13.642;2023-05-02T00:48:35;11.20;1.00
7248;DHT22;3665;51.034;13.642;2023-05-02T00:53:18;11.10;1.00
7248;DHT22;3665;51.034;13.642;2023-05-02T00:58:23;11.20;1.00
7248;DHT22;3665;51.034;13.642;2023-05-02T01:03:16;11.20;1.00
7248;DHT22;3665;51.034;13.642;2023-05-02T01:08:19;11.20;1.00
7248;DHT22;3665;51.034;13.642;2023-05-02T01:13:20;11.20;1.00
7248;DHT22;3665;51.034;13.642;2023-05-02T01:18:12;11.20;1.00
7248;DHT22;3665;51.034;13.642;2023-05-02T01:22:59;11.20;1.00
7248;DHT22;3665;51.034;13.642;2023-05-02T01:28:08;11.10;1.00
7248;DHT22;3665;51.034;13.642;2023-05-02T01:33:05;11.10;1.00
7248;DHT22;3665;51.034;13.642;2023-05-02T01:37:52;11.00;1.00
7248;DHT22;3665;51.034;13.642;2023-05-02T01:42:41;11.10;1.00
7248;DHT22;3665;51.034;13.642;2023-05-02T01:47:28;11.10;1.00
7248;DHT22;3665;51.034;13.642;2023-05-02T01:52:33;11.10;1.00
7248;DHT22;3665;51.034;13.642;2023-05-02T01:57:20;11.10;1.00
7248;DHT22;3665;51.034;13.642;2023-05-02T02:02:08;11.10;1.00
7248;DHT22;3665;51.034;13.642;2023-05-02T02:07:00;11.10;1.00
7248;DHT22;3665;51.034;13.642;2023-05-02T02:12:14;11.00;1.00
7248;DHT22;3665;51.034;13.642;2023-05-02T02:17:08;11.10;1.00
7248;DHT22;3665;51.034;13.642;2023-05-02T02:21:59;11.10;1.00
7248;DHT22;3665;51.034;13.642;2023-05-02T02:26:55;11.10;1.00
7248;DHT22;3665;51.034;13.642;2023-05-02T02:31:42;11.20;1.00
7248;DHT22;3665;51.034;13.642;2023-05-02T02:36:33;11.30;1.00
7248;DHT22;3665;51.034;13.642;2023-05-02T02:41:26;11.30;1.00
7248;DHT22;3665;51.034;13.642;2023-05-02T02:46:29;11.40;1.00
7248;DHT22;3665;51.034;13.642;2023-05-02T02:51:37;11.40;1.00
7248;DHT22;3665;51.034;13.642;2023-05-02T02:56:34;11.40;1.00
7248;DHT22;3665;51.034;13.642;2023-05-02T03:01:21;11.50;1.00
7248;DHT22;3665;51.034;13.642;2023-05-02T03:06:07;11.40;1.00
7248;DHT22;3665;51.034;13.642;2023-05-02T03:10:54;11.30;1.00
7248;DHT22;3665;51.034;13.642;2023-05-02T03:21:06;11.10;1.00
7248;DHT22;3665;51.034;13.642;2023-05-02T03:25:51;11.00;1.00
7248;DHT22;3665;51.034;13.642;2023-05-02T03:30:38;10.90;1.00
7248;DHT22;3665;51.034;13.642;2023-05-02T03:35:26;10.80;1.00
7248;DHT22;3665;51.034;13.642;2023-05-02T03:40:16;10.70;1.00
7248;DHT22;3665;51.034;13.642;2023-05-02T03:45:06;10.60;1.00
7248;DHT22;3665;51.034;13.642;2023-05-02T03:49:50;10.50;1.00
7248;DHT22;3665;51.034;13.642;2023-05-02T03:54:40;10.50;1.00
7248;DHT22;3665;51.034;13.642;2023-05-02T03:59:30;10.40;1.00
7248;DHT22;3665;51.034;13.642;2023-05-02T04:04:33;10.40;1.00
7248;DHT22;3665;51.034;13.642;2023-05-02T04:09:18;10.30;1.00
7248;DHT22;3665;51.034;13.642;2023-05-02T04:14:15;10.30;1.00
7248;DHT22;3665;51.034;13.642;2023-05-02T04:19:58;10.40;1.00
7248;DHT22;3665;51.034;13.642;2023-05-02T04:24:48;10.40;1.00
7248;DHT22;3665;51.034;13.642;2023-05-02T04:29:37;10.50;1.00
7248;DHT22;3665;51.034;13.642;2023-05-02T04:34:23;10.60;1.00
7248;DHT22;3665;51.034;13.642;2023-05-02T04:44:48;10.80;1.00
7248;DHT22;3665;51.034;13.642;2023-05-02T04:49:40;10.90;1.00
7248;DHT22;3665;51.034;13.642;2023-05-02T04:54:24;11.00;1.00
7248;DHT22;3665;51.034;13.642;2023-05-02T04:59:12;11.00;1.00
7248;DHT22;3665;51.034;13.642;2023-05-02T05:04:15;11.10;1.00
7248;DHT22;3665;51.034;13.642;2023-05-02T05:09:08;11.20;1.00
7248;DHT22;3665;51.034;13.642;2023-05-02T05:13:52;11.20;1.00
7248;DHT22;3665;51.034;13.642;2023-05-02T05:18:40;11.20;1.00
7248;DHT22;3665;51.034;13.642;2023-05-02T05:23:43;11.30;1.00
7248;DHT22;3665;51.034;13.642;2023-05-02T05:28:47;11.30;1.00
7248;DHT22;3665;51.034;13.642;2023-05-02T05:33:36;11.40;1.00
7248;DHT22;3665;51.034;13.642;2023-05-02T05:38:22;11.60;1.00
7248;DHT22;3665;51.034;13.642;2023-05-02T05:48:33;12.00;1.00
7248;DHT22;3665;51.034;13.642;2023-05-02T05:53:19;12.30;1.00
7248;DHT22;3665;51.034;13.642;2023-05-02T05:58:07;12.30;1.00
7248;DHT22;3665;51.034;13.642;2023-05-02T06:02:54;12.50;1.00
7248;DHT22;3665;51.034;13.642;2023-05-02T06:07:45;12.70;1.00
7248;DHT22;3665;51.034;13.642;2023-05-02T06:12:32;12.70;1.00
7248;DHT22;3665;51.034;13.642;2023-05-02T06:17:18;12.50;1.00
7248;DHT22;3665;51.034;13.642;2023-05-02T06:22:11;12.70;1.00
7248;DHT22;3665;51.034;13.642;2023-05-02T06:26:58;13.10;1.00
7248;DHT22;3665;51.034;13.642;2023-05-02T06:31:42;12.90;1.00
7248;DHT22;3665;51.034;13.642;2023-05-02T06:36:34;13.00;1.00
7248;DHT22;3665;51.034;13.642;2023-05-02T06:41:18;13.10;1.00
7248;DHT22;3665;51.034;13.642;2023-05-02T06:46:10;13.40;1.00
7248;DHT22;3665;51.034;13.642;2023-05-02T06:50:54;13.60;1.00
7248;DHT22;3665;51.034;13.642;2023-05-02T06:55:45;13.40;1.00
7248;DHT22;3665;51.034;13.642;2023-05-02T07:00:33;13.70;1.00
7248;DHT22;3665;51.034;13.642;2023-05-02T07:05:19;13.80;1.00
7248;DHT22;3665;51.034;13.642;2023-05-02T07:10:08;13.90;1.00
7248;DHT22;3665;51.034;13.642;2023-05-02T07:14:54;14.20;1.00
7248;DHT22;3665;51.034;13.642;2023-05-02T07:19:43;14.30;1.00
7248;DHT22;3665;51.034;13.642;2023-05-02T07:24:31;14.50;1.00
7248;DHT22;3665;51.034;13.642;2023-05-02T07:29:19;14.10;1.00
7248;DHT22;3665;51.034;13.642;2023-05-02T07:34:07;13.70;1.00
7248;DHT22;3665;51.034;13.642;2023-05-02T07:38:56;13.30;1.00
7248;DHT22;3665;51.034;13.642;2023-05-02T07:43:44;13.30;1.00
7248;DHT22;3665;51.034;13.642;2023-05-02T07:48:31;13.30;1.00
7248;DHT22;3665;51.034;13.642;2023-05-02T07:53:21;13.60;1.00
7248;DHT22;3665;51.034;13.642;2023-05-02T07:58:07;14.20;1.00
7248;DHT22;3665;51.034;13.642;2023-05-02T08:02:55;14.40;1.00
7248;DHT22;3665;51.034;13.642;2023-05-02T08:07:45;14.30;1.00
7248;DHT22;3665;51.034;13.642;2023-05-02T08:12:31;14.50;1.00
7248;DHT22;3665;51.034;13.642;2023-05-02T08:17:18;15.20;1.00
7248;DHT22;3665;51.034;13.642;2023-05-02T08:22:06;16.30;1.00
7248;DHT22;3665;51.034;13.642;2023-05-02T08:26:54;16.90;1.00
7248;DHT22;3665;51.034;13.642;2023-05-02T08:32:07;17.30;1.00
7248;DHT22;3665;51.034;13.642;2023-05-02T08:42:32;15.70;1.00
7248;DHT22;3665;51.034;13.642;2023-05-02T08:47:17;15.80;1.00
7248;DHT22;3665;51.034;13.642;2023-05-02T08:52:27;15.90;1.00
7248;DHT22;3665;51.034;13.642;2023-05-02T08:57:24;16.20;1.00
7248;DHT22;3665;51.034;13.642;2023-05-02T09:02:35;16.60;1.00
7248;DHT22;3665;51.034;13.642;2023-05-02T09:07:50;16.50;1.00
7248;DHT22;3665;51.034;13.642;2023-05-02T09:12:37;16.10;1.00
7248;DHT22;3665;51.034;13.642;2023-05-02T09:17:26;16.00;1.00
7248;DHT22;3665;51.034;13.642;2023-05-02T09:22:47;15.80;1.00
7248;DHT22;3665;51.034;13.642;2023-05-02T09:27:51;16.00;1.00
7248;DHT22;3665;51.034;13.642;2023-05-02T09:32:52;16.50;1.00
7248;DHT22;3665;51.034;13.642;2023-05-02T09:37:41;16.50;1.00
7248;DHT22;3665;51.034;13.642;2023-05-02T09:42:30;16.50;1.00
7248;DHT22;3665;51.034;13.642;2023-05-02T09:47:24;17.10;1.00
7248;DHT22;3665;51.034;13.642;2023-05-02T09:52:22;17.20;1.00
7248;DHT22;3665;51.034;13.642;2023-05-02T09:57:31;17.10;1.00
7248;DHT22;3665;51.034;13.642;2023-05-02T10:02:29;16.90;1.00
7248;DHT22;3665;51.034;13.642;2023-05-02T10:07:15;16.70;1.00
7248;DHT22;3665;51.034;13.642;2023-05-02T10:12:08;16.80;1.00
7248;DHT22;3665;51.034;13.642;2023-05-02T10:16:58;17.00;1.00
7248;DHT22;3665;51.034;13.642;2023-05-02T10:21:42;17.00;1.00
7248;DHT22;3665;51.034;13.642;2023-05-02T10:26:29;17.30;1.00
7248;DHT22;3665;51.034;13.642;2023-05-02T10:31:16;17.60;1.00
7248;DHT22;3665;51.034;13.642;2023-05-02T10:36:12;17.50;1.00
7248;DHT22;3665;51.034;13.642;2023-05-02T10:41:11;17.40;1.00
7248;DHT22;3665;51.034;13.642;2023-05-02T10:45:55;17.70;1.00
7248;DHT22;3665;51.034;13.642;2023-05-02T10:50:46;17.70;1.00
7248;DHT22;3665;51.034;13.642;2023-05-02T10:55:34;17.10;1.00
7248;DHT22;3665;51.034;13.642;2023-05-02T11:00:22;16.30;1.00
7248;DHT22;3665;51.034;13.642;2023-05-02T11:05:09;16.00;1.00
7248;DHT22;3665;51.034;13.642;2023-05-02T11:10:31;16.10;1.00
7248;DHT22;3665;51.034;13.642;2023-05-02T11:20:36;17.10;1.00
7248;DHT22;3665;51.034;13.642;2023-05-02T11:25:39;17.90;1.00
7248;DHT22;3665;51.034;13.642;2023-05-02T11:30:47;18.70;1.00
7248;DHT22;3665;51.034;13.642;2023-05-02T11:35:34;19.40;1.00
7248;DHT22;3665;51.034;13.642;2023-05-02T11:40:22;19.40;1.00
7248;DHT22;3665;51.034;13.642;2023-05-02T11:45:08;19.40;1.00
7248;DHT22;3665;51.034;13.642;2023-05-02T11:49:56;18.40;1.00
7248;DHT22;3665;51.034;13.642;2023-05-02T11:54:44;18.80;1.00
7248;DHT22;3665;51.034;13.642;2023-05-02T11:59:50;18.60;1.00
7248;DHT22;3665;51.034;13.642;2023-05-02T12:04:53;17.70;1.00
7248;DHT22;3665;51.034;13.642;2023-05-02T12:09:56;17.60;1.00
7248;DHT22;3665;51.034;13.642;2023-05-02T12:14:46;17.90;1.00
7248;DHT22;3665;51.034;13.642;2023-05-02T12:19:31;18.30;1.00
7248;DHT22;3665;51.034;13.642;2023-05-02T12:24:20;17.40;1.00
7248;DHT22;3665;51.034;13.642;2023-05-02T12:29:08;16.80;1.00
7248;DHT22;3665;51.034;13.642;2023-05-02T12:33:58;16.70;1.00
7248;DHT22;3665;51.034;13.642;2023-05-02T12:38:47;17.00;1.00
7248;DHT22;3665;51.034;13.642;2023-05-02T12:43:51;17.90;1.00
7248;DHT22;3665;51.034;13.642;2023-05-02T12:48:35;18.10;1.00
7248;DHT22;3665;51.034;13.642;2023-05-02T12:53:39;17.70;1.00
7248;DHT22;3665;51.034;13.642;2023-05-02T12:58:27;17.40;1.00
7248;DHT22;3665;51.034;13.642;2023-05-02T13:03:23;17.20;1.00
7248;DHT22;3665;51.034;13.642;2023-05-02T13:08:37;17.70;1.00
7248;DHT22;3665;51.034;13.642;2023-05-02T13:13:25;17.90;1.00
7248;DHT22;3665;51.034;13.642;2023-05-02T13:24:13;18.10;1.00
7248;DHT22;3665;51.034;13.642;2023-05-02T13:29:07;18.40;1.00
7248;DHT22;3665;51.034;13.642;2023-05-02T13:33:56;18.50;1.00
7248;DHT22;3665;51.034;13.642;2023-05-02T13:38:43;18.30;1.00
7248;DHT22;3665;51.034;13.642;2023-05-02T13:43:50;18.10;1.00
7248;DHT22;3665;51.034;13.642;2023-05-02T13:48:36;17.40;1.00
7248;DHT22;3665;51.034;13.642;2023-05-02T13:53:25;17.60;1.00
7248;DHT22;3665;51.034;13.642;2023-05-02T13:58:12;17.20;1.00
7248;DHT22;3665;51.034;13.642;2023-05-02T14:03:04;17.10;1.00
7248;DHT22;3665;51.034;13.642;2023-05-02T14:07:48;17.10;1.00
7248;DHT22;3665;51.034;13.642;2023-05-02T14:12:37;17.50;1.00
7248;DHT22;3665;51.034;13.642;2023-05-02T14:17:24;18.10;1.00
7248;DHT22;3665;51.034;13.642;2023-05-02T14:22:15;18.40;1.00
7248;DHT22;3665;51.034;13.642;2023-05-02T14:27:02;18.30;1.00
7248;DHT22;3665;51.034;13.642;2023-05-02T14:31:49;18.80;1.00
7248;DHT22;3665;51.034;13.642;2023-05-02T14:36:37;18.20;1.00
7248;DHT22;3665;51.034;13.642;2023-05-02T14:41:25;17.50;1.00
7248;DHT22;3665;51.034;13.642;2023-05-02T14:46:12;16.80;1.00
7248;DHT22;3665;51.034;13.642;2023-05-02T14:50:58;16.00;1.00
7248;DHT22;3665;51.034;13.642;2023-05-02T14:55:48;14.90;1.00
7248;DHT22;3665;51.034;13.642;2023-05-02T15:00:38;14.30;1.00
7248;DHT22;3665;51.034;13.642;2023-05-02T15:05:25;13.90;1.00
7248;DHT22;3665;51.034;13.642;2023-05-02T15:10:13;13.60;1.00
7248;DHT22;3665;51.034;13.642;2023-05-02T15:15:17;13.50;1.00
7248;DHT22;3665;51.034;13.642;2023-05-02T15:20:39;13.00;1.00
7248;DHT22;3665;51.034;13.642;2023-05-02T15:25:24;12.90;1.00
7248;DHT22;3665;51.034;13.642;2023-05-02T15:30:12;13.10;1.00
7248;DHT22;3665;51.034;13.642;2023-05-02T15:35:05;13.20;1.00
7248;DHT22;3665;51.034;13.642;2023-05-02T15:39:53;13.30;1.00
7248;DHT22;3665;51.034;13.642;2023-05-02T15:44:52;13.20;1.00
7248;DHT22;3665;51.034;13.642;2023-05-02T15:49:41;13.30;1.00
7248;DHT22;3665;51.034;13.642;2023-05-02T15:54:53;13.30;1.00
7248;DHT22;3665;51.034;13.642;2023-05-02T15:59:51;13.30;1.00
7248;DHT22;3665;51.034;13.642;2023-05-02T16:04:35;13.20;1.00
7248;DHT22;3665;51.034;13.642;2023-05-02T16:09:23;12.90;1.00
7248;DHT22;3665;51.034;13.642;2023-05-02T16:14:28;12.80;1.00
7248;DHT22;3665;51.034;13.642;2023-05-02T16:19:15;12.50;1.00
7248;DHT22;3665;51.034;13.642;2023-05-02T16:24:08;12.60;1.00
7248;DHT22;3665;51.034;13.642;2023-05-02T16:28:53;12.60;1.00
7248;DHT22;3665;51.034;13.642;2023-05-02T16:33:43;12.60;1.00
7248;DHT22;3665;51.034;13.642;2023-05-02T16:38:28;12.70;1.00
7248;DHT22;3665;51.034;13.642;2023-05-02T16:43:34;12.70;1.00
7248;DHT22;3665;51.034;13.642;2023-05-02T16:48:21;12.60;1.00
7248;DHT22;3665;51.034;13.642;2023-05-02T16:53:09;12.40;1.00
7248;DHT22;3665;51.034;13.642;2023-05-02T16:57:55;12.20;1.00
7248;DHT22;3665;51.034;13.642;2023-05-02T17:02:45;12.10;1.00
7248;DHT22;3665;51.034;13.642;2023-05-02T17:07:33;12.10;1.00
7248;DHT22;3665;51.034;13.642;2023-05-02T17:12:23;11.90;1.00
7248;DHT22;3665;51.034;13.642;2023-05-02T17:17:07;11.90;1.00
7248;DHT22;3665;51.034;13.642;2023-05-02T17:22:01;11.80;1.00
7248;DHT22;3665;51.034;13.642;2023-05-02T17:26:46;11.70;1.00
7248;DHT22;3665;51.034;13.642;2023-05-02T17:31:35;11.70;1.00
7248;DHT22;3665;51.034;13.642;2023-05-02T17:36:19;11.70;1.00
7248;DHT22;3665;51.034;13.642;2023-05-02T17:41:08;11.60;1.00
7248;DHT22;3665;51.034;13.642;2023-05-02T17:46:11;11.60;1.00
7248;DHT22;3665;51.034;13.642;2023-05-02T17:51:20;11.50;1.00
7248;DHT22;3665;51.034;13.642;2023-05-02T17:56:05;11.50;1.00
7248;DHT22;3665;51.034;13.642;2023-05-02T18:00:53;11.50;1.00
7248;DHT22;3665;51.034;13.642;2023-05-02T18:05:40;11.50;1.00
7248;DHT22;3665;51.034;13.642;2023-05-02T18:10:46;11.40;1.00
7248;DHT22;3665;51.034;13.642;2023-05-02T18:15:54;11.20;1.00
7248;DHT22;3665;51.034;13.642;2023-05-02T18:25:58;11.00;1.00
7248;DHT22;3665;51.034;13.642;2023-05-02T18:30:46;10.80;1.00
7248;DHT22;3665;51.034;13.642;2023-05-02T18:35:31;10.60;1.00
7248;DHT22;3665;51.034;13.642;2023-05-02T18:45:42;10.50;1.00
7248;DHT22;3665;51.034;13.642;2023-05-02T18:50:28;10.40;1.00
7248;DHT22;3665;51.034;13.642;2023-05-02T18:55:15;10.30;1.00
7248;DHT22;3665;51.034;13.642;2023-05-02T19:00:04;10.30;1.00
7248;DHT22;3665;51.034;13.642;2023-05-02T19:04:53;10.30;1.00
7248;DHT22;3665;51.034;13.642;2023-05-02T19:09:41;10.30;1.00
7248;DHT22;3665;51.034;13.642;2023-05-02T19:14:27;10.10;1.00
7248;DHT22;3665;51.034;13.642;2023-05-02T19:19:15;10.10;1.00
7248;DHT22;3665;51.034;13.642;2023-05-02T19:29:27;9.90;1.00
7248;DHT22;3665;51.034;13.642;2023-05-02T19:34:20;9.80;1.00
7248;DHT22;3665;51.034;13.642;2023-05-02T19:39:16;9.80;1.00
7248;DHT22;3665;51.034;13.642;2023-05-02T19:44:08;9.60;1.00
7248;DHT22;3665;51.034;13.642;2023-05-02T19:48:54;9.50;1.00
7248;DHT22;3665;51.034;13.642;2023-05-02T19:53:48;9.40;1.00
7248;DHT22;3665;51.034;13.642;2023-05-02T19:58:49;9.30;1.00
7248;DHT22;3665;51.034;13.642;2023-05-02T20:03:32;9.20;1.00
7248;DHT22;3665;51.034;13.642;2023-05-02T20:08:21;9.10;1.00
7248;DHT22;3665;51.034;13.642;2023-05-02T20:13:09;9.00;1.00
7248;DHT22;3665;51.034;13.642;2023-05-02T20:17:56;8.80;1.00
7248;DHT22;3665;51.034;13.642;2023-05-02T20:22:44;8.70;1.00
7248;DHT22;3665;51.034;13.642;2023-05-02T20:27:47;8.70;1.00
7248;DHT22;3665;51.034;13.642;2023-05-02T20:32:36;8.70;1.00
7248;DHT22;3665;51.034;13.642;2023-05-02T20:37:29;8.80;1.00
7248;DHT22;3665;51.034;13.642;2023-05-02T20:42:13;8.80;1.00
7248;DHT22;3665;51.034;13.642;2023-05-02T20:47:18;8.90;1.00
7248;DHT22;3665;51.034;13.642;2023-05-02T20:52:04;8.90;1.00
7248;DHT22;3665;51.034;13.642;2023-05-02T20:56:57;8.90;1.00
7248;DHT22;3665;51.034;13.642;2023-05-02T21:01:40;8.90;1.00
7248;DHT22;3665;51.034;13.642;2023-05-02T21:06:30;8.90;1.00
7248;DHT22;3665;51.034;13.642;2023-05-02T21:11:16;8.80;1.00
7248;DHT22;3665;51.034;13.642;2023-05-02T21:16:21;8.80;1.00
7248;DHT22;3665;51.034;13.642;2023-05-02T21:21:08;8.70;1.00
7248;DHT22;3665;51.034;13.642;2023-05-02T21:25:57;8.60;1.00
7248;DHT22;3665;51.034;13.642;2023-05-02T21:30:44;8.50;1.00
7248;DHT22;3665;51.034;13.642;2023-05-02T21:35:37;8.50;1.00
7248;DHT22;3665;51.034;13.642;2023-05-02T21:40:22;8.40;1.00
7248;DHT22;3665;51.034;13.642;2023-05-02T21:45:25;8.30;1.00
7248;DHT22;3665;51.034;13.642;2023-05-02T21:50:12;8.30;1.00
7248;DHT22;3665;51.034;13.642;2023-05-02T21:55:01;8.30;1.00
7248;DHT22;3665;51.034;13.642;2023-05-02T21:59:47;8.30;1.00
7248;DHT22;3665;51.034;13.642;2023-05-02T22:04:42;8.30;1.00
7248;DHT22;3665;51.034;13.642;2023-05-02T22:09:42;8.20;1.00
7248;DHT22;3665;51.034;13.642;2023-05-02T22:14:29;8.20;1.00
7248;DHT22;3665;51.034;13.642;2023-05-02T22:19:33;8.30;1.00
7248;DHT22;3665;51.034;13.642;2023-05-02T22:24:21;8.30;1.00
7248;DHT22;3665;51.034;13.642;2023-05-02T22:29:26;8.30;1.00
7248;DHT22;3665;51.034;13.642;2023-05-02T22:34:14;8.20;1.00
7248;DHT22;3665;51.034;13.642;2023-05-02T22:39:00;8.20;1.00
7248;DHT22;3665;51.034;13.642;2023-05-02T22:44:07;8.10;1.00
7248;DHT22;3665;51.034;13.642;2023-05-02T22:48:51;8.00;1.00
7248;DHT22;3665;51.034;13.642;2023-05-02T22:54:02;8.00;1.00
7248;DHT22;3665;51.034;13.642;2023-05-02T23:04:25;8.00;1.00
7248;DHT22;3665;51.034;13.642;2023-05-02T23:09:17;8.00;1.00
7248;DHT22;3665;51.034;13.642;2023-05-02T23:14:15;8.10;1.00
7248;DHT22;3665;51.034;13.642;2023-05-02T23:19:01;8.10;1.00
7248;DHT22;3665;51.034;13.642;2023-05-02T23:24:12;8.10;1.00
7248;DHT22;3665;51.034;13.642;2023-05-02T23:34:07;8.10;1.00
7248;DHT22;3665;51.034;13.642;2023-05-02T23:39:19;8.20;1.00
7248;DHT22;3665;51.034;13.642;2023-05-02T23:44:06;8.20;1.00
7248;DHT22;3665;51.034;13.642;2023-05-02T23:48:53;8.20;1.00
7248;DHT22;3665;51.034;13.642;2023-05-02T23:53:39;8.20;1.00
